Kooskia, ID (83539)

4:33 AM PST on December 05, 2016 (GMT -0800)
Clearcreek Valley | | Change Station
Active Advisory: Winter Weather Advisory

Elev 1430 ft 46.10 °N, 115.94 °W | Updated 3 seconds ago

Clear
Clear
26.4 °F
Feels Like 26 °F
N
0.0
Wind Variable Wind from West

Today
High -- | Low -- °F
--% Chance of Precip.
Yesterday
High -- | Low -- °F
Precip. -- in
Pressure 30.13 in
Visibility 10.0 miles
Clouds Clear
Windchill 26 °F
Dew Point 26 °F
Humidity 99%
Rainfall 0.00 in
Snow Depth Not available.
7:11 AM 3:58 PM
Waxing Crescent, 31% visible
METAR KLWS 051156Z AUTO 19009KT 10SM CLR M01/M08 A3009 RMK AO2 SLP203 70013 T10111078 10017 21017 51008 $
Pressure 30.13 in
Visibility 10.0 miles
Clouds Clear
Windchill 26 °F
Dew Point 26 °F
Humidity 99%
Rainfall 0.00 in
Snow Depth Not available.
7:11 AM 3:58 PM
Waxing Crescent, 31% visible
METAR KLWS 051156Z AUTO 19009KT 10SM CLR M01/M08 A3009 RMK AO2 SLP203 70013 T10111078 10017 21017 51008 $

10-Day Weather Forecast

Almanac

Astronomy

Dec. 05, 2016 Rise Set
Actual Time
Civil Twilight
Nautical Twilight
Astronomical Twilight
Moon
Length of Visible Light
Length of Day
Tomorrow will be .
, % of the Moon is Illuminated

Today's Extremes

State Highs State Lows

Community

WunderPhotos

Upload Photos

1,955,777 photos uploaded!

WunderBlog® & News

Nearby

Air Quality

  Air Quality AQ Index Pollutant
Not available.

Snow Depth

Station Depth Elevation

Earthquake Activity

City Distance Mag. Time & Date
Minimum magnitude displayed is 2.5.

Coastal Water Temperatures

Place Temperature

Stations

Nearby Weather Stations

Station Location Temp. Windchill Dew Point Humidity Wind Precip. Elev Updated Type
                   

Watches & Warnings

Winter Weather Advisory
Issued: 1:45 PM PST Dec. 4, 2016 – National Weather Service

... Winter Weather Advisory remains in effect until 10 am PST
Monday above 3000 feet...

* impacts/timing: light to moderate snow will continue this
evening. With the combination of snow covered roads and snow on
wet roads, travel conditions could become hazardous for the
Monday morning commute.

* Storm total snow accumulations by Monday morning: 2 to 4 inches
for lower elevations a round Grangeville. 6 to 12 inches for
elevations of 4000 feet and above.

* Locations impacted include: Camas Prairie, Grangeville and
vicinity, and White Bird grade